createdAt,value
2024-01-07T00:00:54.300Z,1.41
2024-01-07T00:03:21.655Z,1.96
2024-01-07T00:05:49.080Z,1.73
2024-01-07T00:08:17.921Z,1.97
2024-01-07T00:10:44.984Z,1.69
2024-01-07T00:13:12.291Z,1.49
2024-01-07T00:15:39.413Z,1.70
2024-01-07T00:18:06.545Z,1.82
2024-01-07T00:20:33.654Z,1.84
2024-01-07T00:23:00.738Z,1.88
2024-01-07T00:25:27.869Z,1.97
2024-01-07T00:27:56.887Z,1.94
2024-01-07T00:30:24.265Z,1.71
2024-01-07T00:32:53.410Z,1.48
2024-01-07T00:35:20.639Z,1.71
2024-01-07T00:37:47.795Z,1.81
2024-01-07T00:40:15.095Z,1.49
2024-01-07T00:42:42.574Z,1.66
2024-01-07T00:45:10.338Z,1.41
2024-01-07T00:47:37.488Z,1.55
2024-01-07T00:50:04.962Z,1.79
2024-01-07T00:52:32.029Z,1.47
2024-01-07T00:54:59.191Z,1.26
2024-01-07T00:57:26.307Z,1.70
2024-01-07T00:59:53.407Z,1.59
2024-01-07T01:02:20.494Z,1.41
2024-01-07T01:04:47.803Z,1.86
2024-01-07T01:07:17.988Z,1.85
2024-01-07T01:09:45.152Z,1.85
2024-01-07T01:12:12.287Z,1.86
2024-01-07T01:14:39.353Z,1.12
2024-01-07T01:17:06.666Z,1.52
2024-01-07T01:19:33.765Z,1.26
2024-01-07T01:22:01.091Z,1.55
2024-01-07T01:24:28.292Z,1.77
2024-01-07T01:26:55.455Z,1.77
2024-01-07T01:29:22.613Z,1.78
2024-01-07T01:31:49.843Z,1.79
2024-01-07T01:34:18.148Z,1.76
2024-01-07T01:36:45.621Z,1.66
2024-01-07T01:39:13.378Z,1.74
2024-01-07T01:41:40.822Z,1.58
2024-01-07T01:44:07.881Z,1.61
2024-01-07T01:46:35.082Z,1.76
2024-01-07T01:49:02.255Z,1.33
2024-01-07T01:51:29.461Z,1.50
2024-01-07T01:53:59.009Z,0.19
2024-01-07T01:56:26.064Z,1.30
2024-01-07T01:58:53.322Z,1.42
2024-01-07T02:04:06.138Z,1.76
2024-01-07T02:06:33.279Z,1.41
2024-01-07T02:09:00.424Z,1.75
2024-01-07T02:11:27.748Z,1.43
2024-01-07T02:13:54.895Z,1.51
2024-01-07T02:16:22.049Z,1.75
2024-01-07T02:18:49.277Z,1.74
2024-01-07T02:21:16.750Z,1.73
2024-01-07T02:23:44.337Z,1.73
2024-01-07T02:26:11.426Z,1.74
2024-01-07T02:28:38.500Z,1.38
2024-01-07T02:31:05.937Z,1.74
2024-01-07T02:33:34.193Z,1.48
2024-01-07T02:36:01.430Z,1.72
2024-01-07T02:38:28.635Z,1.54
2024-01-07T02:40:55.758Z,0.81
2024-01-07T02:43:22.934Z,1.36
2024-01-07T02:45:50.095Z,1.63
2024-01-07T02:48:17.309Z,1.36
2024-01-07T02:50:44.946Z,1.13
2024-01-07T02:53:13.305Z,1.62
2024-01-07T02:55:40.505Z,1.51
2024-01-07T02:58:07.772Z,1.62
2024-01-07T03:00:35.210Z,1.40
2024-01-07T03:03:02.457Z,1.54
2024-01-07T03:05:33.869Z,1.25
2024-01-07T03:08:01.657Z,1.50
2024-01-07T03:10:28.771Z,1.37
2024-01-07T03:12:56.052Z,1.67
2024-01-07T03:15:23.417Z,1.33
2024-01-07T03:17:50.980Z,0.93
2024-01-07T03:20:18.169Z,1.23
2024-01-07T03:22:45.212Z,1.54
2024-01-07T03:25:12.925Z,1.38
2024-01-07T03:27:40.179Z,1.70
2024-01-07T03:30:07.827Z,1.64
2024-01-07T03:32:34.973Z,1.76
2024-01-07T03:35:02.498Z,1.75
2024-01-07T03:37:29.625Z,1.73
2024-01-07T03:39:56.662Z,1.30
2024-01-07T03:42:24.160Z,1.72
2024-01-07T03:44:51.840Z,1.54
2024-01-07T03:47:19.017Z,1.71
2024-01-07T03:49:46.212Z,1.39
2024-01-07T03:52:13.395Z,1.31
2024-01-07T03:54:40.547Z,1.65
2024-01-07T03:57:07.778Z,0.98
2024-01-07T03:59:34.927Z,1.34
2024-01-07T04:02:02.110Z,1.64
2024-01-07T04:04:29.270Z,1.38
2024-01-07T04:06:56.473Z,1.54
2024-01-07T04:09:23.680Z,1.63
2024-01-07T04:11:50.745Z,1.21
2024-01-07T04:14:17.826Z,1.43
2024-01-07T04:16:44.876Z,1.29
2024-01-07T04:19:12.063Z,1.34
2024-01-07T04:21:39.285Z,1.31
2024-01-07T04:24:06.674Z,1.58
2024-01-07T04:26:33.787Z,1.03
2024-01-07T04:29:00.869Z,1.55
2024-01-07T04:31:28.052Z,0.87
2024-01-07T04:33:55.284Z,1.07
2024-01-07T04:36:22.599Z,1.40
2024-01-07T04:38:49.643Z,1.32
2024-01-07T04:41:16.703Z,1.33
2024-01-07T04:43:44.675Z,1.57
2024-01-07T04:46:12.810Z,1.41
2024-01-07T04:48:40.616Z,1.24
2024-01-07T04:51:09.297Z,1.55
2024-01-07T04:53:37.333Z,1.60
2024-01-07T04:56:04.599Z,1.20
2024-01-07T04:58:31.654Z,1.65
2024-01-07T05:00:58.903Z,1.33
2024-01-07T05:03:26.314Z,1.39
2024-01-07T05:05:53.618Z,1.68
2024-01-07T05:08:23.413Z,1.50
2024-01-07T05:10:52.106Z,1.58
2024-01-07T05:13:19.210Z,1.58
2024-01-07T05:15:48.083Z,1.43
2024-01-07T05:18:18.587Z,1.52
2024-01-07T05:20:46.395Z,1.29
2024-01-07T05:23:14.287Z,0.97
2024-01-07T05:25:43.272Z,1.42
2024-01-07T05:28:10.702Z,1.22
2024-01-07T05:30:37.918Z,1.27
2024-01-07T05:33:05.361Z,1.53
2024-01-07T05:35:32.955Z,1.35
2024-01-07T05:38:00.166Z,1.45
2024-01-07T05:40:27.409Z,1.15
2024-01-07T05:42:54.601Z,1.24
2024-01-07T05:45:21.781Z,1.48
2024-01-07T05:47:48.978Z,1.05
2024-01-07T05:50:17.260Z,1.47
2024-01-07T05:52:45.670Z,1.34
2024-01-07T05:55:13.043Z,1.14
2024-01-07T05:57:40.882Z,1.45
2024-01-07T06:00:08.948Z,1.44
2024-01-07T06:02:36.549Z,1.21
2024-01-07T06:05:04.802Z,1.31
2024-01-07T06:07:32.064Z,1.41
2024-01-07T06:10:00.544Z,1.11
2024-01-07T06:12:27.780Z,1.13
2024-01-07T06:14:55.119Z,1.17
2024-01-07T06:17:22.258Z,0.97
2024-01-07T06:19:49.620Z,0.97
2024-01-07T06:22:16.922Z,1.18
2024-01-07T06:24:45.001Z,1.25
2024-01-07T06:27:12.207Z,1.28
2024-01-07T06:29:39.578Z,0.84
2024-01-07T06:32:06.796Z,1.21
2024-01-07T06:34:35.113Z,1.02
2024-01-07T06:37:02.350Z,1.18
2024-01-07T06:39:29.535Z,1.03
2024-01-07T06:41:56.715Z,1.09
2024-01-07T06:44:23.961Z,1.04
2024-01-07T06:46:51.118Z,0.64
2024-01-07T06:49:19.286Z,1.16
2024-01-07T06:51:46.724Z,1.08
2024-01-07T06:54:15.322Z,1.16
2024-01-07T06:56:43.039Z,1.00
2024-01-07T06:59:11.728Z,0.88
2024-01-07T07:01:40.022Z,0.84
2024-01-07T07:04:07.359Z,0.96
2024-01-07T07:06:34.633Z,0.84
2024-01-07T07:09:02.388Z,0.96
2024-01-07T07:11:29.498Z,1.07
2024-01-07T07:13:56.652Z,1.05
2024-01-07T07:16:24.097Z,0.33
2024-01-07T07:18:51.491Z,0.74
2024-01-07T07:21:18.693Z,0.68
2024-01-07T07:23:45.818Z,1.02
2024-01-07T07:26:13.022Z,1.00
2024-01-07T07:28:40.203Z,0.74
2024-01-07T07:31:07.517Z,0.78
2024-01-07T07:33:35.060Z,0.72
2024-01-07T07:36:02.283Z,0.84
2024-01-07T07:38:29.447Z,0.85
2024-01-07T07:40:56.896Z,0.82
2024-01-07T07:43:24.132Z,0.82
2024-01-07T07:45:52.305Z,0.99
2024-01-07T07:48:21.922Z,0.80
2024-01-07T07:50:50.979Z,0.55
2024-01-07T07:53:18.059Z,0.66
2024-01-07T07:55:45.447Z,0.52
2024-01-07T07:58:12.941Z,0.81
2024-01-07T08:00:40.314Z,0.79
2024-01-07T08:03:07.564Z,0.91
2024-01-07T08:05:34.854Z,0.66
2024-01-07T08:08:02.121Z,0.65
2024-01-07T08:10:30.088Z,0.53
2024-01-07T08:12:57.389Z,0.93
2024-01-07T08:15:24.628Z,0.95
2024-01-07T08:17:52.973Z,0.93
2024-01-07T08:20:21.076Z,0.51
2024-01-07T08:22:48.332Z,0.65
2024-01-07T08:25:15.580Z,0.58
2024-01-07T08:27:43.734Z,0.65
2024-01-07T08:30:14.935Z,0.95
2024-01-07T08:32:47.549Z,0.56
2024-01-07T08:35:16.453Z,0.68
2024-01-07T08:37:46.369Z,0.62
2024-01-07T08:40:15.257Z,0.98
2024-01-07T08:42:42.903Z,0.68
2024-01-07T08:45:10.303Z,0.78
2024-01-07T08:47:40.739Z,0.53
2024-01-07T08:50:10.458Z,0.77
2024-01-07T08:52:37.714Z,0.69
2024-01-07T08:55:07.180Z,0.42
2024-01-07T08:57:34.670Z,1.03
2024-01-07T09:00:01.900Z,0.63
2024-01-07T09:02:29.041Z,0.87
2024-01-07T09:04:56.209Z,1.04
2024-01-07T09:07:23.346Z,0.53
2024-01-07T09:10:00.601Z,0.49
2024-01-07T09:12:29.936Z,0.66
2024-01-07T09:14:57.169Z,0.81
2024-01-07T09:17:24.472Z,0.86
2024-01-07T09:19:51.653Z,0.88
2024-01-07T09:22:19.049Z,1.18
2024-01-07T09:24:47.503Z,0.63
2024-01-07T09:27:15.525Z,0.23
2024-01-07T09:29:43.545Z,0.59
2024-01-07T09:32:10.666Z,1.25
2024-01-07T09:34:40.039Z,1.03
2024-01-07T09:37:11.335Z,0.75
2024-01-07T09:39:43.096Z,0.65
2024-01-07T09:42:17.074Z,0.83
2024-01-07T09:44:45.143Z,1.07
2024-01-07T09:47:16.259Z,0.76
2024-01-07T09:49:47.184Z,0.51
2024-01-07T09:52:14.918Z,0.98
2024-01-07T09:54:51.948Z,1.03
2024-01-07T09:57:35.252Z,0.86
2024-01-07T10:00:06.028Z,0.98
2024-01-07T10:02:33.781Z,0.22
2024-01-07T10:05:01.028Z,0.91
2024-01-07T10:07:29.250Z,0.49
2024-01-07T10:09:57.449Z,1.49
2024-01-07T10:12:25.597Z,1.03
2024-01-07T10:14:52.766Z,1.60
2024-01-07T10:17:20.162Z,1.64
2024-01-07T10:19:47.669Z,0.93
2024-01-07T10:22:17.506Z,1.48
2024-01-07T10:24:44.923Z,1.77
2024-01-07T10:27:14.897Z,1.82
2024-01-07T10:29:42.665Z,1.56
2024-01-07T10:32:10.103Z,1.41
2024-01-07T10:34:38.271Z,1.28
2024-01-07T10:37:07.146Z,1.57
2024-01-07T10:39:34.520Z,1.27
2024-01-07T10:42:04.260Z,1.90
2024-01-07T10:44:33.188Z,0.96
2024-01-07T10:47:01.123Z,1.57
2024-01-07T10:49:32.913Z,1.56
2024-01-07T10:52:06.959Z,1.96
2024-01-07T10:54:36.445Z,1.98
2024-01-07T10:57:33.803Z,2.01
2024-01-07T11:00:01.952Z,1.69
2024-01-07T11:02:29.492Z,1.56
2024-01-07T11:05:14.597Z,2.09
2024-01-07T11:07:51.504Z,2.13
2024-01-07T11:10:30.177Z,1.65
2024-01-07T11:13:02.220Z,2.21
2024-01-07T11:15:51.396Z,2.20
2024-01-07T11:18:32.904Z,2.20
2024-01-07T11:21:05.168Z,1.69
2024-01-07T11:23:41.380Z,2.19
2024-01-07T11:26:11.004Z,2.18
2024-01-07T11:28:49.499Z,1.59
2024-01-07T11:31:23.107Z,2.16
2024-01-07T11:33:51.891Z,1.91
2024-01-07T11:36:21.380Z,2.11
2024-01-07T11:38:54.196Z,2.20
2024-01-07T11:41:22.678Z,2.21
2024-01-07T11:44:05.018Z,2.10
2024-01-07T11:46:34.180Z,2.05
2024-01-07T11:49:02.230Z,2.19
2024-01-07T11:51:32.615Z,1.98
2024-01-07T11:54:01.851Z,1.77
2024-01-07T11:56:30.264Z,1.89
2024-01-07T11:58:57.990Z,1.72
2024-01-07T12:01:28.091Z,1.91
2024-01-07T12:03:55.868Z,1.77
2024-01-07T12:06:23.451Z,1.98
2024-01-07T12:08:50.940Z,1.65
2024-01-07T12:11:18.404Z,1.35
2024-01-07T12:13:46.028Z,1.78
2024-01-07T12:16:14.162Z,1.91
2024-01-07T12:18:41.799Z,1.74
2024-01-07T12:21:09.180Z,1.27
2024-01-07T12:23:42.581Z,1.80
2024-01-07T12:26:12.771Z,1.45
2024-01-07T12:28:40.603Z,1.42
2024-01-07T12:31:08.446Z,1.73
2024-01-07T12:33:38.584Z,1.72
2024-01-07T12:36:08.444Z,1.55
2024-01-07T12:38:39.290Z,1.48
2024-01-07T12:41:06.825Z,1.71
2024-01-07T12:43:34.790Z,1.62
2024-01-07T12:46:07.159Z,1.71
2024-01-07T12:48:35.057Z,1.72
2024-01-07T12:51:02.915Z,1.65
2024-01-07T12:53:30.521Z,1.73
2024-01-07T12:55:58.709Z,1.51
2024-01-07T12:58:26.033Z,1.63
2024-01-07T13:00:53.661Z,1.55
2024-01-07T13:03:21.338Z,1.62
2024-01-07T13:05:52.851Z,1.83
2024-01-07T13:08:21.217Z,1.54
2024-01-07T13:10:50.001Z,1.41
2024-01-07T13:13:17.299Z,1.84
2024-01-07T13:15:46.347Z,1.52
2024-01-07T13:18:14.453Z,1.87
2024-01-07T13:20:41.906Z,1.47
2024-01-07T13:23:09.192Z,1.49
2024-01-07T13:25:36.420Z,1.70
2024-01-07T13:28:04.085Z,1.67
2024-01-07T13:30:31.582Z,1.85
2024-01-07T13:33:00.655Z,1.83
2024-01-07T13:35:28.850Z,1.37
2024-01-07T13:37:56.074Z,1.76
2024-01-07T13:40:23.275Z,1.73
2024-01-07T13:42:52.497Z,1.11
2024-01-07T13:45:24.686Z,1.70
2024-01-07T13:47:52.358Z,1.06
2024-01-07T13:50:19.805Z,1.58
2024-01-07T13:52:46.961Z,1.46
2024-01-07T13:55:15.173Z,1.19
2024-01-07T13:57:43.369Z,1.60
2024-01-07T14:00:12.826Z,1.51
2024-01-07T14:02:42.047Z,1.51
2024-01-07T14:05:11.887Z,1.44
2024-01-07T14:07:40.111Z,1.24
2024-01-07T14:10:08.656Z,1.72
2024-01-07T14:12:36.372Z,1.58
2024-01-07T14:15:04.430Z,1.84
2024-01-07T14:17:31.921Z,1.53
2024-01-07T14:19:59.379Z,1.52
2024-01-07T14:22:26.805Z,1.78
2024-01-07T14:24:54.054Z,1.80
2024-01-07T14:27:21.392Z,1.80
2024-01-07T14:29:49.305Z,1.09
2024-01-07T14:32:16.595Z,1.66
2024-01-07T14:34:45.655Z,1.52
2024-01-07T14:37:13.271Z,1.60
2024-01-07T14:39:41.002Z,1.47
2024-01-07T14:42:08.429Z,1.31
2024-01-07T14:44:44.517Z,1.60
2024-01-07T14:47:17.566Z,1.43
2024-01-07T14:49:44.942Z,1.54
2024-01-07T14:52:12.261Z,1.28
2024-01-07T14:54:40.900Z,1.60
2024-01-07T14:57:10.093Z,1.45
2024-01-07T14:59:37.541Z,1.31
2024-01-07T15:02:05.413Z,1.32
2024-01-07T15:04:36.296Z,1.13
2024-01-07T15:07:03.695Z,1.10
2024-01-07T15:09:31.096Z,1.65
2024-01-07T15:11:58.409Z,1.25
2024-01-07T15:14:25.565Z,1.21
2024-01-07T15:16:56.236Z,1.00
2024-01-07T15:19:24.376Z,1.62
2024-01-07T15:21:52.249Z,1.27
2024-01-07T15:24:19.586Z,0.89
2024-01-07T15:26:46.979Z,1.07
2024-01-07T15:29:15.528Z,1.53
2024-01-07T15:31:43.365Z,1.48
2024-01-07T15:34:10.855Z,1.45
2024-01-07T15:36:38.925Z,1.11
2024-01-07T15:39:06.385Z,1.25
2024-01-07T15:41:33.583Z,1.08
2024-01-07T15:44:00.818Z,1.41
2024-01-07T15:46:29.507Z,1.28
2024-01-07T15:48:56.942Z,1.19
2024-01-07T15:51:24.246Z,1.14
2024-01-07T15:53:51.601Z,0.92
2024-01-07T15:56:21.112Z,0.73
2024-01-07T15:58:48.768Z,1.14
2024-01-07T16:01:16.117Z,0.75
2024-01-07T16:03:44.386Z,1.04
2024-01-07T16:06:11.669Z,1.29
2024-01-07T16:08:38.901Z,0.83
2024-01-07T16:11:06.186Z,1.28
2024-01-07T16:13:33.337Z,1.28
2024-01-07T16:16:05.778Z,1.14
2024-01-07T16:18:33.387Z,1.08
2024-01-07T16:21:00.716Z,1.22
2024-01-07T16:23:28.945Z,1.03
2024-01-07T16:25:56.777Z,1.00
2024-01-07T16:28:24.446Z,0.55
2024-01-07T16:30:51.828Z,1.14
2024-01-07T16:33:19.224Z,0.63
2024-01-07T16:35:46.342Z,0.70
2024-01-07T16:38:14.891Z,0.88
2024-01-07T16:40:44.332Z,1.01
2024-01-07T16:43:11.516Z,0.79
2024-01-07T16:45:39.108Z,0.84
2024-01-07T16:48:06.775Z,0.62
2024-01-07T16:50:34.468Z,1.04
2024-01-07T16:53:03.667Z,0.66
2024-01-07T16:55:30.915Z,0.79
2024-01-07T16:57:58.054Z,1.01
2024-01-07T17:00:25.261Z,0.98
2024-01-07T17:02:52.364Z,0.75
2024-01-07T17:05:19.947Z,0.93
2024-01-07T17:07:49.212Z,0.92
2024-01-07T17:10:17.824Z,-0.18
2024-01-07T17:12:45.876Z,0.76
2024-01-07T17:15:14.979Z,0.89
2024-01-07T17:17:43.013Z,0.37
2024-01-07T17:20:11.434Z,0.83
2024-01-07T17:22:38.809Z,0.82
2024-01-07T17:25:09.830Z,0.67
2024-01-07T17:27:37.063Z,0.80
2024-01-07T17:30:04.764Z,0.79
2024-01-07T17:32:32.094Z,0.52
2024-01-07T17:34:59.340Z,0.52
2024-01-07T17:37:27.512Z,0.27
2024-01-07T17:39:54.884Z,-0.07
2024-01-07T17:42:23.179Z,0.70
2024-01-07T17:44:50.366Z,0.09
2024-01-07T17:47:17.849Z,0.36
2024-01-07T17:49:48.407Z,0.69
2024-01-07T17:52:15.626Z,0.68
2024-01-07T17:54:42.950Z,0.48
2024-01-07T17:57:10.207Z,0.26
2024-01-07T17:59:37.454Z,0.35
2024-01-07T18:02:08.336Z,0.63
2024-01-07T18:04:36.125Z,0.48
2024-01-07T18:07:03.299Z,0.22
2024-01-07T18:09:30.723Z,0.51
2024-01-07T18:11:58.041Z,0.54
2024-01-07T18:14:25.346Z,0.07
2024-01-07T18:16:52.886Z,0.53
2024-01-07T18:19:20.222Z,0.15
2024-01-07T18:21:48.626Z,0.32
2024-01-07T18:24:16.310Z,0.54
2024-01-07T18:26:44.095Z,0.54
2024-01-07T18:29:13.105Z,0.50
2024-01-07T18:31:43.715Z,0.42
2024-01-07T18:34:11.782Z,0.22
2024-01-07T18:36:39.182Z,-0.02
2024-01-07T18:39:08.323Z,0.48
2024-01-07T18:41:36.955Z,0.30
2024-01-07T18:44:08.685Z,0.16
2024-01-07T18:46:37.867Z,0.33
2024-01-07T18:49:05.214Z,0.42
2024-01-07T18:51:32.724Z,0.27
2024-01-07T18:53:59.928Z,0.42
2024-01-07T18:56:27.669Z,0.24
2024-01-07T18:58:56.838Z,0.15
2024-01-07T19:01:25.731Z,0.22
2024-01-07T19:03:53.152Z,-0.01
2024-01-07T19:06:20.389Z,0.33
2024-01-07T19:08:48.984Z,0.25
2024-01-07T19:11:16.267Z,0.29
2024-01-07T19:13:44.379Z,-0.06
2024-01-07T19:16:11.514Z,-0.01
2024-01-07T19:18:38.839Z,-0.17
2024-01-07T19:21:08.955Z,-0.06
2024-01-07T19:23:40.918Z,-0.25
2024-01-07T19:26:08.622Z,0.18
2024-01-07T19:28:37.357Z,0.13
2024-01-07T19:31:06.951Z,-0.32
2024-01-07T19:33:35.821Z,0.14
2024-01-07T19:36:04.636Z,-0.14
2024-01-07T19:38:32.162Z,0.10
2024-01-07T19:40:59.534Z,-0.21
2024-01-07T19:43:26.723Z,0.06
2024-01-07T19:45:53.922Z,-0.28
2024-01-07T19:48:21.227Z,-0.11
2024-01-07T19:50:48.524Z,-0.28
2024-01-07T19:53:23.527Z,-0.45
2024-01-07T19:55:57.257Z,-0.17
2024-01-07T19:58:24.817Z,-0.16
2024-01-07T20:00:52.332Z,-0.33
2024-01-07T20:03:20.249Z,-0.07
2024-01-07T20:05:47.590Z,-0.16
2024-01-07T20:08:15.876Z,-0.13
2024-01-07T20:10:43.132Z,-0.27
2024-01-07T20:13:10.309Z,-0.40
2024-01-07T20:15:37.575Z,-0.20
2024-01-07T20:18:05.050Z,-0.21
2024-01-07T20:20:34.460Z,-0.14
2024-01-07T20:23:04.902Z,-0.10
2024-01-07T20:25:32.087Z,-0.09
2024-01-07T20:27:59.344Z,-0.45
2024-01-07T20:30:26.748Z,-0.29
2024-01-07T20:32:53.919Z,-0.27
2024-01-07T20:35:21.230Z,-0.06
2024-01-07T20:37:48.413Z,-0.15
2024-01-07T20:40:15.607Z,-0.35
2024-01-07T20:42:44.533Z,-0.02
2024-01-07T20:45:13.144Z,-0.36
2024-01-07T20:47:40.334Z,-0.43
2024-01-07T20:50:10.270Z,-0.19
2024-01-07T20:52:37.578Z,-0.29
2024-01-07T20:55:05.250Z,-0.07
2024-01-07T20:57:32.455Z,-0.32
2024-01-07T20:59:59.669Z,-0.06
2024-01-07T21:02:28.601Z,-0.12
2024-01-07T21:05:02.572Z,-0.28
2024-01-07T21:07:32.352Z,0.02
2024-01-07T21:10:01.222Z,-0.53
2024-01-07T21:12:28.362Z,-0.38
2024-01-07T21:14:58.161Z,-0.30
2024-01-07T21:19:52.523Z,0.04
2024-01-07T21:22:19.720Z,0.04
2024-01-07T21:24:47.021Z,-0.06
2024-01-07T21:27:14.425Z,0.06
2024-01-07T21:29:41.984Z,-0.19
2024-01-07T21:32:09.772Z,-0.13
2024-01-07T21:34:39.489Z,-0.08
2024-01-07T21:37:06.622Z,0.10
2024-01-07T21:39:33.765Z,-0.04
2024-01-07T21:42:00.893Z,-0.21
2024-01-07T21:44:28.312Z,-0.37
2024-01-07T21:46:55.708Z,0.11
2024-01-07T21:49:23.151Z,-0.32
2024-01-07T21:51:50.285Z,0.08
2024-01-07T21:54:17.399Z,-0.37
2024-01-07T21:56:44.828Z,0.07
2024-01-07T21:59:12.105Z,0.00
2024-01-07T22:01:40.399Z,-0.24
2024-01-07T22:04:07.635Z,-0.07
2024-01-07T22:06:34.880Z,-0.20
2024-01-07T22:09:02.169Z,-0.16
2024-01-07T22:11:29.349Z,-0.09
2024-01-07T22:13:56.650Z,-0.24
2024-01-07T22:16:23.877Z,-0.02
2024-01-07T22:18:51.096Z,-0.23
2024-01-07T22:21:20.156Z,-0.15
2024-01-07T22:23:48.457Z,-0.43
2024-01-07T22:26:15.661Z,-0.25
2024-01-07T22:28:46.065Z,0.03
2024-01-07T22:31:14.854Z,-0.61
2024-01-07T22:33:43.053Z,-0.34
2024-01-07T22:36:10.719Z,-0.37
2024-01-07T22:38:38.114Z,-0.12
2024-01-07T22:41:05.685Z,0.03
2024-01-07T22:43:33.308Z,-0.28
2024-01-07T22:46:00.570Z,-0.20
2024-01-07T22:48:33.097Z,0.05
2024-01-07T22:51:00.823Z,0.03
2024-01-07T22:53:28.059Z,-0.24
2024-01-07T22:55:55.395Z,-0.52
2024-01-07T22:58:22.671Z,-0.77
2024-01-07T23:00:49.931Z,-0.59
2024-01-07T23:03:17.227Z,-0.03
2024-01-07T23:05:44.797Z,-0.61
2024-01-07T23:08:12.484Z,-0.43
2024-01-07T23:10:40.112Z,-0.42
2024-01-07T23:13:07.342Z,-0.43
2024-01-07T23:15:34.501Z,-0.38
2024-01-07T23:18:01.689Z,-0.20
2024-01-07T23:20:28.932Z,-0.38
2024-01-07T23:22:56.139Z,-0.47
2024-01-07T23:25:23.311Z,-0.27
2024-01-07T23:27:50.544Z,-0.31
2024-01-07T23:30:17.860Z,-0.48
2024-01-07T23:32:45.163Z,-1.04
2024-01-07T23:35:12.682Z,-0.56
2024-01-07T23:37:39.939Z,-0.55
2024-01-07T23:40:08.025Z,-0.38
2024-01-07T23:42:35.437Z,-0.38
2024-01-07T23:45:02.712Z,-0.49
2024-01-07T23:47:30.020Z,-0.48
2024-01-07T23:49:57.251Z,-0.51
2024-01-07T23:52:24.479Z,-0.63
2024-01-07T23:54:51.680Z,-0.42
2024-01-07T23:57:18.910Z,-0.77
2024-01-07T23:59:46.081Z,-0.41
